Time;durP1;ratioP1;P1;durP2;ratioP2;P2;SDS_P1;SDS_P2;PMS_P1;PMS_P2;Temp;Humidity;BMP_temperature;BMP_pressure;BME280_temperature;BME280_humidity;BME280_pressure;Samples;Min_cycle;Max_cycle;Signal;HPM_P1;HPM_P2
2021/05/23 00:01:36;;;;;;;3.17;1.80;;;;;;;19.37;49.08;100836.25;5057078;28;20029;-61
2021/05/23 00:04:02;;;;;;;3.70;2.00;;;;;;;19.36;49.40;100832.78;5063221;28;20630;-61
2021/05/23 00:06:27;;;;;;;3.03;1.80;;;;;;;19.35;49.24;100839.03;5064158;28;20025;-62
2021/05/23 00:08:52;;;;;;;4.20;1.90;;;;;;;19.33;49.41;100843.63;5064621;28;20025;-61
2021/05/23 00:11:18;;;;;;;3.70;2.10;;;;;;;19.34;49.50;100841.81;5063415;28;20032;-62
2021/05/23 00:13:47;;;;;;;2.90;1.80;;;;;;;19.33;49.41;100841.00;5065144;28;20033;-62
2021/05/23 00:16:20;;;;;;;3.58;1.90;;;;;;;19.31;49.47;100842.06;5066197;28;20044;-62
2021/05/23 00:18:48;;;;;;;3.80;2.00;;;;;;;19.30;49.16;100838.59;5067610;28;20017;-61
2021/05/23 00:21:16;;;;;;;3.38;1.95;;;;;;;19.30;49.49;100835.13;5056194;28;20024;-61
2021/05/23 00:23:42;;;;;;;3.28;1.77;;;;;;;19.28;49.40;100834.41;5054029;28;20116;-61
2021/05/23 00:26:07;;;;;;;3.47;1.85;;;;;;;19.28;49.30;100840.56;5054990;28;20130;-62
2021/05/23 00:28:35;;;;;;;3.50;1.92;;;;;;;19.27;49.18;100843.31;5055382;28;20028;-62
2021/05/23 00:31:00;;;;;;;3.20;1.98;;;;;;;19.26;49.26;100841.66;5055445;28;20043;-61
2021/05/23 00:33:30;;;;;;;4.00;2.08;;;;;;;19.26;49.27;100844.28;5056204;28;20021;-62
2021/05/23 00:36:01;;;;;;;3.13;2.05;;;;;;;19.24;49.00;100841.78;5059326;28;20021;-62
2021/05/23 00:38:26;;;;;;;3.00;1.77;;;;;;;19.25;49.08;100842.59;5055029;28;20462;-62
2021/05/23 00:40:52;;;;;;;3.15;1.80;;;;;;;19.26;49.41;100844.28;5053771;28;20100;-61
2021/05/23 00:43:19;;;;;;;3.70;2.00;;;;;;;19.24;49.45;100836.50;5053560;28;20021;-61
2021/05/23 00:45:46;;;;;;;3.08;1.90;;;;;;;19.22;49.09;100838.44;5053608;28;20017;-62
2021/05/23 00:48:12;;;;;;;2.83;1.80;;;;;;;19.21;49.41;100848.16;5053674;28;20033;-62
2021/05/23 00:50:38;;;;;;;3.25;2.00;;;;;;;19.23;49.09;100853.31;5053072;28;20143;-61
2021/05/23 00:53:04;;;;;;;3.15;1.85;;;;;;;19.18;49.26;100843.16;5052594;28;20025;-62
2021/05/23 00:55:31;;;;;;;3.88;1.70;;;;;;;19.20;49.48;100853.56;5052887;28;20399;-61
2021/05/23 00:57:56;;;;;;;3.35;1.88;;;;;;;19.18;49.08;100852.88;5053037;28;20108;-62
2021/05/23 01:00:53;;;;;;;2.83;1.73;;;;;;;19.20;49.03;100850.91;5052019;28;20128;-61
2021/05/23 01:03:28;;;;;;;3.05;1.80;;;;;;;19.20;49.01;100850.91;5052064;28;20557;-61
2021/05/23 01:06:16;;;;;;;3.20;1.90;;;;;;;19.17;49.18;100849.41;5052115;28;20032;-62
2021/05/23 01:08:41;;;;;;;3.47;1.95;;;;;;;19.18;49.40;100863.44;5052536;28;20075;-61
2021/05/23 01:11:15;;;;;;;3.58;2.00;;;;;;;19.16;49.11;100855.63;5052118;28;20056;-61
2021/05/23 01:13:43;;;;;;;4.47;2.10;;;;;;;19.15;49.14;100859.25;5051711;28;20030;-62
2021/05/23 01:16:13;;;;;;;3.72;2.30;;;;;;;19.15;49.32;100867.19;5051915;28;20041;-61
2021/05/23 01:18:50;;;;;;;3.53;2.10;;;;;;;19.11;49.01;100857.84;5052297;28;20094;-61
2021/05/23 01:21:19;;;;;;;3.45;1.90;;;;;;;19.14;49.21;100859.41;5051092;28;20045;-61
2021/05/23 01:23:47;;;;;;;3.47;2.10;;;;;;;19.14;48.93;100862.88;5051985;28;20147;-61
2021/05/23 01:26:14;;;;;;;3.45;2.08;;;;;;;19.13;49.06;100866.47;5051007;28;20037;-61
2021/05/23 01:28:40;;;;;;;3.90;2.20;;;;;;;19.11;49.21;100857.84;5051333;28;20473;-61
2021/05/23 01:31:08;;;;;;;3.38;1.90;;;;;;;19.13;49.06;100865.63;5051873;28;20036;-62
2021/05/23 01:33:35;;;;;;;3.78;2.00;;;;;;;19.11;49.26;100859.66;5051354;28;20020;-61
2021/05/23 01:36:00;;;;;;;4.50;2.30;;;;;;;19.12;49.34;100869.22;5051906;28;20021;-61
2021/05/23 01:38:28;;;;;;;3.55;2.00;;;;;;;19.10;49.29;100869.38;5051425;28;20048;-62
2021/05/23 01:40:59;;;;;;;3.38;1.83;;;;;;;19.08;49.21;100866.03;5051284;28;20052;-62
2021/05/23 01:43:25;;;;;;;3.58;2.28;;;;;;;19.09;48.91;100864.22;5051725;28;20385;-61
2021/05/23 01:45:50;;;;;;;3.70;2.20;;;;;;;19.08;48.96;100860.75;5052011;28;20488;-62
2021/05/23 01:48:16;;;;;;;3.33;2.08;;;;;;;19.08;49.01;100866.03;5050700;28;20480;-62
2021/05/23 01:50:44;;;;;;;3.65;2.05;;;;;;;19.08;48.88;100870.47;5051731;28;20056;-61
2021/05/23 01:53:10;;;;;;;3.42;2.13;;;;;;;19.07;49.01;100869.63;5051149;28;20125;-61
2021/05/23 01:55:36;;;;;;;4.20;2.47;;;;;;;19.06;49.19;100870.59;5051098;28;20048;-62
2021/05/23 01:58:04;;;;;;;3.60;2.15;;;;;;;19.05;49.24;100868.94;5051242;28;20491;-61
2021/05/23 02:00:43;;;;;;;3.90;2.10;;;;;;;19.07;49.16;100866.16;5051622;28;20033;-62
2021/05/23 02:03:10;;;;;;;4.03;2.20;;;;;;;19.05;48.89;100868.09;5050691;28;20037;-61
2021/05/23 02:05:42;;;;;;;3.75;2.13;;;;;;;19.05;49.31;100879.50;5051397;28;20025;-62
2021/05/23 02:08:08;;;;;;;3.58;2.17;;;;;;;19.04;48.86;100872.53;5055540;28;20033;-61
2021/05/23 02:10:34;;;;;;;3.55;2.05;;;;;;;19.04;48.90;100883.09;5055373;28;20021;-61
2021/05/23 02:13:01;;;;;;;4.10;2.20;;;;;;;19.02;49.17;100871.81;5055687;28;20052;-62
2021/05/23 02:15:27;;;;;;;4.07;2.50;;;;;;;19.02;49.35;100877.09;5055836;28;20162;-61
2021/05/23 02:17:53;;;;;;;4.20;1.85;;;;;;;19.02;49.29;100866.53;5054916;28;20139;-62
2021/05/23 02:20:29;;;;;;;3.40;2.15;;;;;;;19.00;48.89;100876.41;5055499;28;20487;-64
2021/05/23 02:22:56;;;;;;;4.35;2.20;;;;;;;19.00;49.06;100879.03;5054851;28;20423;-62
2021/05/23 02:25:23;;;;;;;4.13;2.15;;;;;;;19.00;49.19;100876.41;5055363;28;20079;-62
2021/05/23 02:28:05;;;;;;;3.33;2.15;;;;;;;19.00;49.15;100876.41;5055745;28;20124;-62
2021/05/23 02:30:36;;;;;;;3.72;2.28;;;;;;;18.99;49.19;100878.22;5054970;28;20479;-63
2021/05/23 02:33:07;;;;;;;4.18;2.20;;;;;;;18.99;49.22;100882.66;5055822;28;20108;-61
2021/05/23 02:35:35;;;;;;;4.22;2.38;;;;;;;18.97;49.03;100885.41;5056126;28;20055;-62
2021/05/23 02:38:03;;;;;;;4.65;2.63;;;;;;;18.96;49.16;100881.13;5055368;28;20069;-62
2021/05/23 02:40:32;;;;;;;4.30;2.22;;;;;;;18.97;49.25;100887.22;5055616;28;20025;-62
2021/05/23 02:42:58;;;;;;;4.45;2.53;;;;;;;18.96;48.90;100888.19;5055026;28;20025;-62
2021/05/23 02:45:25;;;;;;;3.47;2.15;;;;;;;18.95;49.19;100892.63;5053822;28;20021;-62
2021/05/23 02:47:54;;;;;;;4.55;2.22;;;;;;;18.93;48.92;100878.72;5055436;28;20036;-62
2021/05/23 02:50:24;;;;;;;4.05;2.42;;;;;;;18.95;49.04;100886.53;5054705;28;20024;-62
2021/05/23 02:52:52;;;;;;;3.97;2.50;;;;;;;18.94;48.76;100895.41;5054265;28;20107;-61
2021/05/23 02:55:17;;;;;;;4.28;2.67;;;;;;;18.94;49.14;100890.13;5054486;28;20040;-61
2021/05/23 02:57:44;;;;;;;4.10;2.40;;;;;;;18.94;49.03;100892.78;5054575;28;20028;-61
2021/05/23 03:00:13;;;;;;;3.50;2.20;;;;;;;18.93;49.06;100891.09;5054579;28;20021;-62
2021/05/23 03:02:39;;;;;;;4.35;2.50;;;;;;;18.92;49.31;100892.91;5054757;28;20107;-61
2021/05/23 03:05:07;;;;;;;4.13;2.42;;;;;;;18.92;49.19;100895.53;5053803;28;20068;-62
2021/05/23 03:07:44;;;;;;;4.30;2.25;;;;;;;18.92;49.27;100897.34;5054467;28;20036;-62
2021/05/23 03:10:12;;;;;;;3.95;2.30;;;;;;;18.91;49.28;100899.13;5054376;28;20025;-61
2021/05/23 03:12:38;;;;;;;4.10;2.35;;;;;;;18.91;48.75;100893.03;5054144;28;20071;-61
2021/05/23 03:15:06;;;;;;;3.85;2.33;;;;;;;18.91;48.79;100893.03;5054277;28;20116;-62
2021/05/23 03:17:31;;;;;;;3.92;2.22;;;;;;;18.89;48.79;100889.69;5054465;28;20024;-62
2021/05/23 03:19:57;;;;;;;4.95;2.50;;;;;;;18.89;49.00;100895.78;5053779;28;20025;-62
2021/05/23 03:22:22;;;;;;;5.75;2.45;;;;;;;18.88;49.23;100907.31;5053988;28;20032;-62
2021/05/23 03:24:50;;;;;;;5.30;2.40;;;;;;;18.88;49.07;100911.75;5054097;28;20024;-62
2021/05/23 03:27:16;;;;;;;3.80;2.50;;;;;;;18.89;49.14;100916.09;5053067;28;20041;-62
2021/05/23 03:29:41;;;;;;;3.85;2.25;;;;;;;18.88;48.74;100917.03;5054389;28;20048;-61
2021/05/23 03:32:07;;;;;;;4.25;2.20;;;;;;;18.88;48.79;100915.22;5054000;28;20021;-61
2021/05/23 03:34:32;;;;;;;5.88;2.40;;;;;;;18.87;48.95;100918.84;5053528;28;20484;-61
2021/05/23 03:37:00;;;;;;;3.90;2.20;;;;;;;18.87;49.19;100923.28;5053846;28;20116;-62
2021/05/23 03:39:28;;;;;;;4.82;2.28;;;;;;;18.84;48.78;100922.56;5053890;28;20104;-61
2021/05/23 03:41:53;;;;;;;3.47;2.03;;;;;;;18.85;48.92;100926.06;5053174;28;20102;-63
2021/05/23 03:44:19;;;;;;;3.55;2.17;;;;;;;18.84;49.10;100922.56;5053595;28;20048;-61
2021/05/23 03:46:47;;;;;;;3.60;2.05;;;;;;;18.85;49.16;100923.44;5053854;28;20483;-61
2021/05/23 03:49:15;;;;;;;4.40;2.65;;;;;;;18.85;49.13;100926.06;5052824;28;20024;-62
2021/05/23 03:51:41;;;;;;;3.78;2.15;;;;;;;18.82;48.86;100916.56;5053660;28;20036;-61
2021/05/23 03:54:10;;;;;;;3.35;1.98;;;;;;;18.82;48.96;100923.66;5052833;28;20472;-62
2021/05/23 03:56:36;;;;;;;3.78;2.10;;;;;;;18.82;49.10;100929.75;5053586;28;20025;-62
2021/05/23 03:59:01;;;;;;;4.65;2.47;;;;;;;18.83;49.06;100934.09;5053669;28;20128;-62
2021/05/23 04:01:27;;;;;;;4.32;2.45;;;;;;;18.80;48.87;100933.47;5053101;28;20033;-62
2021/05/23 04:03:56;;;;;;;4.70;2.22;;;;;;;18.82;49.10;100936.84;5053535;28;20036;-61
2021/05/23 04:06:22;;;;;;;3.53;2.08;;;;;;;18.82;49.11;100934.22;5053113;28;20052;-61
2021/05/23 04:08:47;;;;;;;3.90;2.00;;;;;;;18.80;48.73;100942.25;5052731;28;20076;-62
2021/05/23 04:11:16;;;;;;;4.28;2.08;;;;;;;18.80;48.75;100938.75;5053513;28;20274;-62
2021/05/23 04:13:41;;;;;;;4.25;2.10;;;;;;;18.80;48.94;100942.25;5053496;28;20021;-61
2021/05/23 04:16:11;;;;;;;3.45;1.90;;;;;;;18.76;48.82;100940.00;5052252;28;20029;-61
2021/05/23 04:18:37;;;;;;;3.78;1.95;;;;;;;18.78;48.83;100953.91;5053081;28;20036;-61
2021/05/23 04:21:03;;;;;;;4.90;2.10;;;;;;;18.77;49.11;100954.84;5052805;28;20021;-61
2021/05/23 04:23:28;;;;;;;4.65;2.22;;;;;;;18.79;49.05;100958.22;5052251;28;20526;-62
2021/05/23 04:25:54;;;;;;;3.33;1.80;;;;;;;18.78;48.71;100961.81;5053086;28;20072;-62
2021/05/23 04:28:19;;;;;;;4.57;2.10;;;;;;;18.77;49.01;100961.00;5052826;28;20026;-61
2021/05/23 04:30:45;;;;;;;3.78;2.00;;;;;;;18.77;48.80;100965.41;5051737;28;20040;-61
2021/05/23 04:33:10;;;;;;;4.25;1.90;;;;;;;18.78;49.10;100969.75;5053023;28;20028;-61
2021/05/23 04:35:36;;;;;;;5.35;2.17;;;;;;;18.75;48.94;100965.53;5052682;28;20388;-62
2021/05/23 04:38:04;;;;;;;5.38;1.90;;;;;;;18.76;49.08;100972.50;5052012;28;20421;-62
2021/05/23 04:40:29;;;;;;;3.85;1.83;;;;;;;18.75;48.80;100970.81;5052807;28;20025;-62
2021/05/23 04:42:55;;;;;;;4.50;1.95;;;;;;;18.74;48.91;100971.81;5052823;28;20380;-62
2021/05/23 04:45:20;;;;;;;5.07;1.75;;;;;;;18.73;48.76;100975.41;5051688;28;20986;-62
2021/05/23 04:47:46;;;;;;;5.38;2.08;;;;;;;18.75;48.95;100983.19;5052672;28;20090;-61
2021/05/23 04:50:32;;;;;;;4.20;1.70;;;;;;;18.74;48.82;100985.00;5052199;28;20475;-61
2021/05/23 04:52:57;;;;;;;3.80;1.70;;;;;;;18.74;48.65;100989.44;5051020;28;20041;-62
2021/05/23 04:55:23;;;;;;;4.28;1.75;;;;;;;18.73;48.75;100993.88;5052205;28;20098;-62
2021/05/23 04:57:48;;;;;;;3.88;1.60;;;;;;;18.73;48.78;100991.25;5051457;28;20021;-62
2021/05/23 05:00:14;;;;;;;3.92;1.70;;;;;;;18.73;48.64;100998.34;5052199;28;20036;-62
2021/05/23 05:02:41;;;;;;;6.18;1.77;;;;;;;18.73;48.90;101000.97;5052180;28;20059;-63
2021/05/23 05:05:08;;;;;;;4.57;1.75;;;;;;;18.73;48.57;101006.25;5051539;28;20082;-61
2021/05/23 05:07:34;;;;;;;3.30;1.50;;;;;;;18.72;48.83;100999.28;5052025;28;20475;-62
2021/05/23 05:10:09;;;;;;;3.28;1.45;;;;;;;18.72;48.50;101009.84;5052009;28;20029;-62
2021/05/23 05:12:37;;;;;;;5.75;2.00;;;;;;;18.70;48.90;101009.13;5051305;28;20461;-61
2021/05/23 05:15:07;;;;;;;5.82;1.80;;;;;;;18.68;49.03;101001.34;5051493;28;20036;-61
2021/05/23 05:17:32;;;;;;;3.33;1.67;;;;;;;18.71;48.69;101010.78;5051851;28;20514;-63
2021/05/23 05:19:58;;;;;;;4.22;1.67;;;;;;;18.65;48.64;101001.59;5051318;28;20021;-62
2021/05/23 05:22:24;;;;;;;4.35;2.15;;;;;;;18.68;48.74;101010.09;5051818;28;20100;-61
2021/05/23 05:24:49;;;;;;;4.15;1.75;;;;;;;18.71;48.79;101011.66;5051993;28;20017;-62
2021/05/23 05:27:14;;;;;;;5.57;1.60;;;;;;;18.74;48.88;101018.47;5050391;28;20041;-62
2021/05/23 05:29:40;;;;;;;4.43;1.50;;;;;;;18.78;48.80;101023.38;5051710;28;20094;-62
2021/05/23 05:32:05;;;;;;;4.03;1.40;;;;;;;18.82;48.71;101024.81;5051496;28;20032;-62
2021/05/23 05:34:31;;;;;;;4.18;1.70;;;;;;;18.88;48.83;101020.03;5051050;28;20293;-62
2021/05/23 05:37:02;;;;;;;4.68;1.65;;;;;;;18.91;48.58;101025.88;5051794;28;20040;-62
2021/05/23 05:39:30;;;;;;;5.13;1.65;;;;;;;18.94;48.72;101027.44;5051888;28;20028;-61
2021/05/23 05:41:56;;;;;;;2.40;1.23;;;;;;;18.99;48.74;101033.19;5050791;28;20029;-61
2021/05/23 05:44:21;;;;;;;3.25;1.30;;;;;;;19.03;48.69;101038.09;5051290;28;20124;-61
2021/05/23 05:46:47;;;;;;;3.83;1.30;;;;;;;19.07;48.28;101033.41;5051107;28;20441;-61
2021/05/23 05:49:15;;;;;;;3.10;1.35;;;;;;;19.13;48.14;101038.19;5051354;28;20028;-62
2021/05/23 05:51:40;;;;;;;5.43;1.55;;;;;;;19.17;48.28;101042.25;5051517;28;20025;-62
2021/05/23 05:54:05;;;;;;;4.33;1.20;;;;;;;19.20;47.65;101044.66;5050539;28;20025;-61
2021/05/23 05:56:31;;;;;;;2.43;1.17;;;;;;;19.23;47.90;101048.81;5051460;28;20343;-61
2021/05/23 05:58:56;;;;;;;3.80;1.40;;;;;;;19.27;47.75;101057.34;5051498;28;20761;-62
2021/05/23 06:01:21;;;;;;;3.73;1.30;;;;;;;19.30;47.59;101042.06;5050383;28;20107;-63
2021/05/23 06:03:47;;;;;;;4.00;1.35;;;;;;;19.34;47.47;101045.28;5051700;28;20301;-62
2021/05/23 06:06:12;;;;;;;3.83;1.58;;;;;;;19.39;47.51;101058.94;5051400;28;20025;-62
2021/05/23 06:08:37;;;;;;;4.32;1.30;;;;;;;19.42;47.38;101055.22;5050714;28;20078;-61
2021/05/23 06:11:05;;;;;;;2.80;1.20;;;;;;;19.42;47.43;101050.78;5051163;28;20021;-62
2021/05/23 06:13:31;;;;;;;4.65;1.23;;;;;;;19.43;47.38;101057.75;5051325;28;20262;-62
2021/05/23 06:15:56;;;;;;;4.90;1.42;;;;;;;19.45;47.24;101055.81;5050767;28;20021;-62
2021/05/23 06:18:26;;;;;;;4.53;1.50;;;;;;;19.46;47.26;101062.78;5051011;28;20060;-62
2021/05/23 06:20:52;;;;;;;3.53;1.52;;;;;;;19.48;46.97;101063.47;5051133;28;20281;-61
2021/05/23 06:23:17;;;;;;;3.25;1.05;;;;;;;19.51;47.44;101065.03;5050460;28;20025;-62
2021/05/23 06:25:43;;;;;;;2.97;1.23;;;;;;;19.54;46.89;101072.72;5051311;28;20146;-61
2021/05/23 06:28:08;;;;;;;3.65;1.13;;;;;;;19.56;47.15;101068.94;5050836;28;20472;-61
2021/05/23 06:30:37;;;;;;;3.03;0.93;;;;;;;19.60;46.71;101073.97;5050794;28;20211;-61
2021/05/23 06:33:02;;;;;;;3.22;1.25;;;;;;;19.61;46.62;101087.06;5051194;28;20029;-61
2021/05/23 06:35:28;;;;;;;4.15;1.17;;;;;;;19.62;46.57;101082.66;5051411;28;20440;-62
2021/05/23 06:38:19;;;;;;;3.78;1.17;;;;;;;19.62;46.82;101087.94;5050416;28;20108;-61
2021/05/23 06:40:44;;;;;;;5.20;1.40;;;;;;;19.61;47.04;101089.72;5042766;28;20037;-62
2021/05/23 06:43:10;;;;;;;2.92;1.00;;;;;;;19.61;46.69;101096.81;5050436;28;20055;-62
2021/05/23 06:45:35;;;;;;;3.70;1.02;;;;;;;19.60;46.71;101101.28;5051288;28;20096;-61
2021/05/23 06:48:03;;;;;;;4.10;1.10;;;;;;;19.60;47.18;101098.63;5051063;28;20025;-61
2021/05/23 06:50:29;;;;;;;2.42;1.00;;;;;;;19.69;47.20;101112.88;5050236;28;20025;-64
2021/05/23 06:52:54;;;;;;;2.90;1.20;;;;;;;19.75;47.09;101113.19;5052805;28;20445;-65
2021/05/23 06:55:19;;;;;;;4.63;1.33;;;;;;;19.82;46.31;101123.28;5054942;28;20368;-65
2021/05/23 06:57:44;;;;;;;4.10;1.10;;;;;;;19.85;46.39;101115.09;5054673;28;20108;-65
2021/05/23 07:00:13;;;;;;;3.10;1.15;;;;;;;19.86;46.39;101125.56;5054667;28;20056;-66
2021/05/23 07:02:39;;;;;;;3.83;0.90;;;;;;;19.89;46.57;101125.31;5055092;28;20021;-65
2021/05/23 07:05:04;;;;;;;3.03;1.00;;;;;;;19.90;46.49;101127.00;5053976;28;20029;-64
2021/05/23 07:07:31;;;;;;;3.67;1.10;;;;;;;19.90;46.81;101127.00;5054838;28;20388;-68
2021/05/23 07:09:57;;;;;;;4.85;1.10;;;;;;;19.93;46.79;101129.38;5055380;28;20029;-68
2021/05/23 07:12:23;;;;;;;6.57;1.25;;;;;;;19.94;46.68;101135.50;5053799;28;20162;-66
2021/05/23 07:15:03;;;;;;;4.67;1.20;;;;;;;19.94;46.68;101130.19;5054859;28;20326;-66
2021/05/23 07:17:31;;;;;;;2.75;0.95;;;;;;;19.93;46.90;101131.16;5054471;28;20365;-67
2021/05/23 07:19:56;;;;;;;3.78;1.10;;;;;;;19.94;46.93;101140.78;5054284;28;20044;-67
2021/05/23 07:22:22;;;;;;;3.50;0.97;;;;;;;19.94;46.92;101138.97;5054206;28;20060;-67
2021/05/23 07:24:48;;;;;;;6.63;1.23;;;;;;;19.93;46.97;101139.97;5054516;28;20351;-70
2021/05/23 07:27:14;;;;;;;3.92;1.10;;;;;;;19.93;46.82;101147.88;5053351;28;20500;-69
2021/05/23 07:29:39;;;;;;;3.97;1.15;;;;;;;19.91;46.87;101136.56;5054646;28;20029;-67
2021/05/23 07:32:05;;;;;;;4.30;1.08;;;;;;;19.91;46.93;101136.56;5053191;28;20032;-69
2021/05/23 07:34:30;;;;;;;3.55;1.10;;;;;;;19.92;46.86;101145.38;5054416;28;20104;-65
2021/05/23 07:36:58;;;;;;;5.40;1.10;;;;;;;19.88;47.15;101142.13;5054000;28;20379;-68
2021/05/23 07:39:24;;;;;;;3.28;1.08;;;;;;;19.85;46.88;101158.28;5053142;28;20551;-70
2021/05/23 07:41:49;;;;;;;3.08;1.00;;;;;;;19.82;47.02;101145.31;5054407;28;20036;-71
2021/05/23 07:44:16;;;;;;;4.05;1.20;;;;;;;19.84;46.99;101142.53;5054327;28;20025;-71
2021/05/23 07:46:41;;;;;;;4.38;1.10;;;;;;;19.85;47.14;101154.78;5054160;28;20029;-71
2021/05/23 07:49:06;;;;;;;3.17;1.10;;;;;;;19.84;47.44;101151.31;5054171;28;20104;-70
2021/05/23 07:51:32;;;;;;;4.28;0.90;;;;;;;19.84;47.23;101140.72;5054189;28;20031;-70
2021/05/23 07:53:57;;;;;;;3.45;0.90;;;;;;;19.86;47.23;101159.09;5053843;28;20021;-69
2021/05/23 07:56:22;;;;;;;2.65;1.02;;;;;;;19.85;47.43;101146.84;5053744;28;20023;-70
2021/05/23 07:58:48;;;;;;;4.70;1.40;;;;;;;19.82;47.30;101147.97;5054086;28;20020;-69
2021/05/23 08:01:14;;;;;;;3.42;1.20;;;;;;;19.84;47.21;101153.94;5052858;28;20472;-69
2021/05/23 08:03:40;;;;;;;5.40;1.10;;;;;;;19.85;46.89;101162.72;5052859;28;20017;-72
2021/05/23 08:06:08;;;;;;;3.40;1.00;;;;;;;19.82;46.85;101163.81;5053384;28;20110;-68
2021/05/23 08:08:34;;;;;;;4.30;1.02;;;;;;;19.81;47.19;101174.53;5053091;28;20052;-67
2021/05/23 08:11:02;;;;;;;3.95;1.23;;;;;;;19.82;47.64;101174.41;5053937;28;20357;-60
2021/05/23 08:13:27;;;;;;;4.53;1.10;;;;;;;19.82;47.04;101174.41;5053478;28;20491;-59
2021/05/23 08:15:54;;;;;;;4.35;1.20;;;;;;;19.81;47.08;101175.34;5052532;28;20053;-59
2021/05/23 08:18:27;;;;;;;4.97;1.15;;;;;;;19.81;46.98;101183.28;5052672;28;20028;-60
2021/05/23 08:20:55;;;;;;;2.30;0.90;;;;;;;19.81;47.04;101193.88;5053267;28;20052;-59
2021/05/23 08:23:21;;;;;;;4.47;1.10;;;;;;;19.81;46.78;101193.88;5040898;28;20394;-59
2021/05/23 08:25:46;;;;;;;4.47;1.30;;;;;;;19.81;46.91;101193.03;5044685;28;20574;-58
2021/05/23 08:28:12;;;;;;;4.15;1.10;;;;;;;19.81;46.84;101200.97;5052729;28;20152;-59
2021/05/23 08:30:41;;;;;;;3.08;1.10;;;;;;;19.81;47.10;101203.63;5052307;28;20099;-59
2021/05/23 08:33:06;;;;;;;2.83;0.82;;;;;;;19.82;46.88;101200.00;5052556;28;20031;-58
2021/05/23 08:35:34;;;;;;;3.88;1.10;;;;;;;19.82;46.81;101192.91;5052353;28;20336;-58
2021/05/23 08:37:59;;;;;;;3.40;1.08;;;;;;;19.81;46.62;101199.16;5052545;28;20041;-60
2021/05/23 08:40:25;;;;;;;3.83;1.10;;;;;;;19.80;46.85;101200.13;5052808;28;20111;-59
2021/05/23 08:42:50;;;;;;;3.55;1.00;;;;;;;19.77;46.76;101212.75;5052052;28;20028;-58
2021/05/23 08:45:18;;;;;;;3.20;0.90;;;;;;;19.74;46.76;101213.81;5052471;28;20025;-58
2021/05/23 08:47:47;;;;;;;3.15;0.95;;;;;;;19.75;46.89;101213.69;5052631;28;20021;-59
2021/05/23 08:50:17;;;;;;;4.45;1.02;;;;;;;19.75;46.68;101207.56;5051823;28;20158;-58
2021/05/23 08:52:42;;;;;;;4.70;0.90;;;;;;;19.74;46.46;101214.66;5052750;28;20024;-58
2021/05/23 08:55:14;;;;;;;3.67;1.17;;;;;;;19.73;46.71;101212.16;5052442;28;20410;-58
2021/05/23 08:57:45;;;;;;;2.38;0.80;;;;;;;19.75;46.58;101212.84;5051755;28;20033;-59
2021/05/23 09:00:11;;;;;;;2.20;0.80;;;;;;;19.72;46.53;101200.72;5052401;28;20082;-61
2021/05/23 09:02:48;;;;;;;2.97;0.90;;;;;;;19.74;46.62;101216.44;5051889;28;20044;-60
2021/05/23 09:05:13;;;;;;;5.15;1.20;;;;;;;19.72;46.41;101223.69;5051652;28;20108;-60
2021/05/23 09:07:46;;;;;;;3.42;1.00;;;;;;;19.72;46.43;101226.31;5052599;28;20413;-59
2021/05/23 09:10:22;;;;;;;2.55;0.90;;;;;;;19.67;46.36;101233.81;5052143;28;20045;-60
2021/05/23 09:12:50;;;;;;;3.58;1.08;;;;;;;19.67;46.33;101231.16;5052083;28;20086;-60
2021/05/23 09:15:16;;;;;;;2.17;0.70;;;;;;;19.63;46.36;101235.88;5052113;28;20021;-60
2021/05/23 09:17:44;;;;;;;3.85;1.00;;;;;;;19.63;45.74;101241.16;5051460;28;20090;-60
2021/05/23 09:20:18;;;;;;;4.38;1.30;;;;;;;19.66;45.87;101240.03;5052205;28;20024;-60
2021/05/23 09:22:43;;;;;;;3.30;1.00;;;;;;;19.65;45.99;101255.09;5052495;28;20033;-60
2021/05/23 09:25:10;;;;;;;4.22;1.10;;;;;;;19.64;45.90;101256.03;5051207;28;20036;-61
2021/05/23 09:27:43;;;;;;;3.17;0.90;;;;;;;19.61;45.93;101261.56;5052446;28;20049;-59
2021/05/23 09:30:19;;;;;;;2.57;0.93;;;;;;;19.59;45.96;101258.22;5052063;28;20021;-59
2021/05/23 09:32:51;;;;;;;3.00;0.95;;;;;;;19.55;45.38;101270.84;5051288;28;20856;-59
2021/05/23 09:35:16;;;;;;;2.90;0.80;;;;;;;19.54;45.79;101277.09;5051636;28;20436;-59
2021/05/23 09:37:43;;;;;;;2.78;0.82;;;;;;;19.52;45.53;101273.75;5051186;28;20044;-59
2021/05/23 09:40:18;;;;;;;3.83;0.98;;;;;;;19.49;45.66;101276.63;5050833;28;20528;-59
2021/05/23 09:42:47;;;;;;;2.38;0.82;;;;;;;19.46;45.61;101273.41;5051988;28;20029;-58
2021/05/23 09:45:14;;;;;;;2.83;1.02;;;;;;;19.46;45.69;101268.13;5051752;28;20032;-59
2021/05/23 09:47:58;;;;;;;3.03;1.00;;;;;;;19.45;45.82;101277.00;5051677;28;20050;-60
2021/05/23 09:50:31;;;;;;;4.60;0.95;;;;;;;19.46;45.69;101271.59;5051313;28;20032;-60
2021/05/23 09:52:56;;;;;;;3.05;1.10;;;;;;;19.46;45.57;101271.59;5051135;28;20411;-59
2021/05/23 09:55:22;;;;;;;3.13;0.97;;;;;;;19.44;45.56;101270.88;5051278;28;20029;-60
2021/05/23 09:57:49;;;;;;;3.00;0.82;;;;;;;19.45;45.72;101277.00;5051714;28;20737;-61
2021/05/23 10:00:15;;;;;;;4.40;0.90;;;;;;;19.49;45.59;101271.34;5050247;28;20044;-59
2021/05/23 10:02:56;;;;;;;3.28;0.90;;;;;;;19.50;45.48;101280.97;5051329;28;20028;-59
2021/05/23 10:05:23;;;;;;;3.28;0.90;;;;;;;19.50;45.62;101283.59;5051263;28;20369;-59
2021/05/23 10:07:48;;;;;;;3.33;0.82;;;;;;;19.54;45.45;101282.38;5050925;28;20079;-60
2021/05/23 10:10:15;;;;;;;2.05;0.93;;;;;;;19.55;45.15;101289.34;5051194;28;20411;-60
2021/05/23 10:12:41;;;;;;;3.33;0.90;;;;;;;19.57;45.25;101282.13;5051475;28;20029;-60
2021/05/23 10:15:10;;;;;;;3.90;1.15;;;;;;;19.56;45.27;101290.19;5050264;28;20100;-60
2021/05/23 10:17:37;;;;;;;3.40;0.82;;;;;;;19.53;44.99;101291.25;5051457;28;20083;-59
2021/05/23 10:20:10;;;;;;;2.60;0.93;;;;;;;19.50;45.01;101293.31;5051173;28;20032;-60
2021/05/23 10:22:37;;;;;;;2.78;1.23;;;;;;;19.51;45.25;101301.13;5050586;28;20425;-61
2021/05/23 10:25:12;;;;;;;2.63;0.80;;;;;;;19.49;45.19;101305.72;5051265;28;20460;-60
2021/05/23 10:27:41;;;;;;;3.05;0.88;;;;;;;19.47;44.96;101315.56;5052537;28;20041;-59
2021/05/23 10:30:08;;;;;;;3.15;0.90;;;;;;;19.43;45.14;101308.00;5054082;28;20507;-59
2021/05/23 10:32:37;;;;;;;4.00;1.15;;;;;;;19.45;45.21;101321.94;5055378;28;20175;-59
2021/05/23 10:35:15;;;;;;;3.35;1.00;;;;;;;19.47;45.35;101312.94;5053963;28;20021;-59
2021/05/23 10:37:43;;;;;;;2.70;0.85;;;;;;;19.50;44.96;101303.91;5055032;28;20431;-59
2021/05/23 10:40:26;;;;;;;2.63;0.80;;;;;;;19.50;45.09;101307.41;5054638;28;20035;-58
2021/05/23 10:42:59;;;;;;;3.08;0.98;;;;;;;19.49;45.04;101300.41;5054512;28;20029;-60
2021/05/23 10:45:33;;;;;;;3.90;1.10;;;;;;;19.46;44.75;101303.31;5054811;28;20082;-59
2021/05/23 10:48:14;;;;;;;5.40;1.20;;;;;;;19.49;45.26;101318.94;5054931;28;20025;-57
2021/05/23 10:50:40;;;;;;;3.78;1.00;;;;;;;19.51;44.98;101310.88;5054177;28;20055;-57
2021/05/23 10:53:06;;;;;;;3.75;1.00;;;;;;;19.52;44.71;101300.19;5054541;28;20025;-59
2021/05/23 10:55:33;;;;;;;2.40;0.90;;;;;;;19.50;44.96;101304.75;5052950;28;20037;-59
2021/05/23 10:58:01;;;;;;;3.28;0.90;;;;;;;19.50;44.96;101304.75;5044657;28;20029;-61
2021/05/23 11:00:29;;;;;;;3.20;1.08;;;;;;;19.51;44.82;101310.88;5033871;28;20461;-59
2021/05/23 11:02:56;;;;;;;2.47;0.80;;;;;;;19.56;44.46;101306.06;5034314;28;20030;-57
2021/05/23 11:05:26;;;;;;;2.80;0.90;;;;;;;19.55;44.81;101302.56;5033896;28;20082;-59
2021/05/23 11:08:07;;;;;;;3.60;0.85;;;;;;;19.54;45.07;101316.75;5034681;28;20030;-60
2021/05/23 11:10:42;;;;;;;3.75;1.00;;;;;;;19.53;44.87;101307.13;5034243;28;20030;-59
2021/05/23 11:13:10;;;;;;;2.92;0.90;;;;;;;19.51;45.00;101314.34;5034449;28;20018;-60
2021/05/23 11:15:47;;;;;;;2.88;1.00;;;;;;;19.55;45.09;101310.50;5034538;28;20028;-60
2021/05/23 11:18:20;;;;;;;2.80;1.00;;;;;;;19.55;44.80;101312.28;5033535;28;20369;-59
2021/05/23 11:21:20;;;;;;;3.03;0.87;;;;;;;19.57;44.79;101310.38;5034654;28;20100;-61
2021/05/23 11:23:50;;;;;;;2.22;0.90;;;;;;;19.59;44.46;101297.88;5001936;28;20046;-59
2021/05/23 11:26:16;;;;;;;4.20;0.90;;;;;;;19.60;44.85;101312.78;5033664;28;20029;-59
2021/05/23 11:28:53;;;;;;;2.47;0.80;;;;;;;19.61;44.64;101303.88;5034577;28;20082;-59